SXS7DD LTCC-LTBJ
Flight info
| Callsign | SXS7DD |
|---|---|
| Flight time | 1h 31m |
| Altitude | 36000 |
| Route | MOVU1X MOVUL UW73 ERH DCT KULAR KULA1E |
| Aircraft | B38M/M-SADE2E3GIJ4J7RW/LB1D1 |
Departure
| Time | 2026-05-05 15:32 |
|---|---|
| Airport | Diyarbakır Airport (LTCC) |
Arrival
| Time | 2026-05-05 17:03 |
|---|---|
| Airport | Adnan Menderes International Airport (LTBJ) |
| Time | Latitude | Longitude | Altitude | Speed | Heading |
|---|---|---|---|---|---|
| 2026-05-05 15:11 | 37.90084 | 40.18631 | 2265 ft | 0 kts | 252° |
| 2026-05-05 15:23 | 37.90088 | 40.18648 | 2265 ft | 2 kts | 252° |
| 2026-05-05 15:23 | 37.90093 | 40.18666 | 2265 ft | 2 kts | 252° |
| 2026-05-05 15:24 | 37.90097 | 40.18684 | 2265 ft | 2 kts | 252° |
| 2026-05-05 15:24 | 37.90103 | 40.18705 | 2265 ft | 2 kts | 258° |
| 2026-05-05 15:24 | 37.90101 | 40.18727 | 2265 ft | 2 kts | 293° |
| 2026-05-05 15:24 | 37.90091 | 40.18744 | 2265 ft | 2 kts | 323° |
| 2026-05-05 15:25 | 37.90082 | 40.18751 | 2265 ft | 1 kts | 341° |
| 2026-05-05 15:25 | 37.90076 | 40.18753 | 2265 ft | 0 kts | 342° |
| 2026-05-05 15:26 | 37.90077 | 40.18753 | 2265 ft | 0 kts | 342° |
| 2026-05-05 15:26 | 37.90080 | 40.18751 | 2265 ft | 0 kts | 342° |
| 2026-05-05 15:27 | 37.90100 | 40.18743 | 2265 ft | 6 kts | 342° |
| 2026-05-05 15:27 | 37.90146 | 40.18773 | 2266 ft | 11 kts | 69° |
| 2026-05-05 15:27 | 37.90179 | 40.18903 | 2266 ft | 18 kts | 72° |
| 2026-05-05 15:27 | 37.90225 | 40.19094 | 2264 ft | 24 kts | 73° |
| 2026-05-05 15:28 | 37.90275 | 40.19299 | 2261 ft | 23 kts | 73° |
| 2026-05-05 15:28 | 37.90319 | 40.19467 | 2257 ft | 11 kts | 40° |
| 2026-05-05 15:28 | 37.90388 | 40.19458 | 2257 ft | 9 kts | 345° |
| 2026-05-05 15:28 | 37.90454 | 40.19434 | 2258 ft | 9 kts | 343° |
| 2026-05-05 15:29 | 37.90525 | 40.19405 | 2259 ft | 13 kts | 341° |
| 2026-05-05 15:29 | 37.90623 | 40.19363 | 2261 ft | 13 kts | 341° |
| 2026-05-05 15:29 | 37.90699 | 40.19332 | 2263 ft | 9 kts | 343° |
| 2026-05-05 15:29 | 37.90753 | 40.19311 | 2265 ft | 8 kts | 343° |
| 2026-05-05 15:30 | 37.90815 | 40.19294 | 2267 ft | 9 kts | 359° |
| 2026-05-05 15:30 | 37.90856 | 40.19361 | 2265 ft | 13 kts | 74° |
| 2026-05-05 15:30 | 37.90884 | 40.19484 | 2262 ft | 10 kts | 80° |
| 2026-05-05 15:30 | 37.90832 | 40.19534 | 2259 ft | 10 kts | 161° |
| 2026-05-05 15:31 | 37.90714 | 40.19581 | 2256 ft | 40 kts | 163° |
| 2026-05-05 15:31 | 37.90207 | 40.19778 | 2246 ft | 104 kts | 161° |
| 2026-05-05 15:31 | 37.89312 | 40.20135 | 2225 ft | 154 kts | 162° |
| 2026-05-05 15:31 | 37.88129 | 40.20573 | 2369 ft | 181 kts | 165° |
| 2026-05-05 15:32 | 37.86923 | 40.21070 | 2999 ft | 184 kts | 166° |
| 2026-05-05 15:32 | 37.85572 | 40.21602 | 3457 ft | 200 kts | 167° |
| 2026-05-05 15:32 | 37.84155 | 40.22040 | 3937 ft | 209 kts | 180° |
| 2026-05-05 15:32 | 37.82656 | 40.21709 | 4271 ft | 223 kts | 206° |
| 2026-05-05 15:33 | 37.81294 | 40.20592 | 4669 ft | 237 kts | 222° |
| 2026-05-05 15:33 | 37.80202 | 40.18976 | 5145 ft | 250 kts | 240° |
| 2026-05-05 15:33 | 37.79659 | 40.16816 | 5556 ft | 267 kts | 268° |
| 2026-05-05 15:33 | 37.80060 | 40.14502 | 6145 ft | 276 kts | 292° |
| 2026-05-05 15:34 | 37.80935 | 40.12281 | 6779 ft | 282 kts | 297° |
| 2026-05-05 15:34 | 37.81867 | 40.10090 | 7420 ft | 286 kts | 297° |
| 2026-05-05 15:34 | 37.82791 | 40.07838 | 8082 ft | 291 kts | 295° |
| 2026-05-05 15:34 | 37.83705 | 40.05530 | 8716 ft | 295 kts | 295° |
| 2026-05-05 15:35 | 37.84612 | 40.03204 | 9352 ft | 299 kts | 295° |
| 2026-05-05 15:35 | 37.85541 | 40.00809 | 9969 ft | 303 kts | 295° |
| 2026-05-05 15:35 | 37.86485 | 39.98369 | 10457 ft | 313 kts | 295° |
| 2026-05-05 15:35 | 37.87468 | 39.95826 | 10831 ft | 327 kts | 295° |
| 2026-05-05 15:36 | 37.88488 | 39.93184 | 11118 ft | 343 kts | 295° |
| 2026-05-05 15:36 | 37.89199 | 39.91338 | 11317 ft | 353 kts | 295° |
| 2026-05-05 15:36 | 37.90675 | 39.87511 | 11732 ft | 371 kts | 295° |
| 2026-05-05 15:36 | 37.91857 | 39.84460 | 11962 ft | 387 kts | 295° |
| 2026-05-05 15:37 | 37.93071 | 39.81329 | 12209 ft | 400 kts | 295° |
| 2026-05-05 15:37 | 37.94331 | 39.78075 | 12683 ft | 406 kts | 295° |
| 2026-05-05 15:37 | 37.95576 | 39.74860 | 13276 ft | 409 kts | 295° |
| 2026-05-05 15:37 | 37.96838 | 39.71604 | 13864 ft | 413 kts | 295° |
| 2026-05-05 15:38 | 37.98102 | 39.68336 | 14506 ft | 415 kts | 295° |
| 2026-05-05 15:38 | 37.99376 | 39.65035 | 15032 ft | 406 kts | 295° |
| 2026-05-05 15:38 | 38.00611 | 39.61826 | 15110 ft | 409 kts | 295° |
| 2026-05-05 15:38 | 38.01873 | 39.58534 | 15450 ft | 419 kts | 295° |
| 2026-05-05 15:39 | 38.03165 | 39.55158 | 16039 ft | 423 kts | 295° |
| 2026-05-05 15:39 | 38.04466 | 39.51757 | 16651 ft | 426 kts | 295° |
| 2026-05-05 15:39 | 38.05774 | 39.48333 | 17157 ft | 431 kts | 295° |
| 2026-05-05 15:39 | 38.07085 | 39.44893 | 17724 ft | 434 kts | 295° |
| 2026-05-05 15:40 | 38.08414 | 39.41403 | 18270 ft | 437 kts | 295° |
| 2026-05-05 15:40 | 38.09740 | 39.37911 | 18857 ft | 440 kts | 295° |
| 2026-05-05 15:40 | 38.11080 | 39.34387 | 19416 ft | 442 kts | 294° |
| 2026-05-05 15:40 | 38.12437 | 39.30821 | 19940 ft | 446 kts | 294° |
| 2026-05-05 15:41 | 38.13814 | 39.27197 | 20443 ft | 449 kts | 294° |
| 2026-05-05 15:41 | 38.15157 | 39.23609 | 20924 ft | 452 kts | 292° |
| 2026-05-05 15:41 | 38.16374 | 39.19888 | 21476 ft | 453 kts | 289° |
| 2026-05-05 15:41 | 38.17474 | 39.16081 | 21941 ft | 456 kts | 287° |
| 2026-05-05 15:42 | 38.18503 | 39.12267 | 22393 ft | 460 kts | 287° |
| 2026-05-05 15:42 | 38.19521 | 39.08396 | 22808 ft | 464 kts | 286° |
| 2026-05-05 15:42 | 38.20544 | 39.04512 | 23287 ft | 466 kts | 287° |
| 2026-05-05 15:42 | 38.21595 | 39.00601 | 23781 ft | 468 kts | 287° |
| 2026-05-05 15:43 | 38.22670 | 38.96667 | 24235 ft | 470 kts | 287° |
| 2026-05-05 15:43 | 38.23761 | 38.92735 | 24685 ft | 472 kts | 287° |
| 2026-05-05 15:43 | 38.24877 | 38.88728 | 25057 ft | 476 kts | 287° |
| 2026-05-05 15:43 | 38.26012 | 38.84651 | 25456 ft | 479 kts | 287° |
| 2026-05-05 15:44 | 38.27132 | 38.80620 | 25863 ft | 481 kts | 287° |
| 2026-05-05 15:44 | 38.28276 | 38.76492 | 26233 ft | 483 kts | 287° |
| 2026-05-05 15:44 | 38.29404 | 38.72435 | 26796 ft | 481 kts | 287° |
| 2026-05-05 15:44 | 38.30526 | 38.68407 | 27624 ft | 473 kts | 287° |
| 2026-05-05 15:45 | 38.31616 | 38.64494 | 28219 ft | 469 kts | 287° |
| 2026-05-05 15:45 | 38.32719 | 38.60526 | 28658 ft | 470 kts | 287° |
| 2026-05-05 15:45 | 38.33825 | 38.56538 | 29136 ft | 469 kts | 287° |
| 2026-05-05 15:45 | 38.34905 | 38.52640 | 29564 ft | 467 kts | 287° |
| 2026-05-05 15:46 | 38.36027 | 38.48581 | 29989 ft | 466 kts | 287° |
| 2026-05-05 15:46 | 38.37185 | 38.44380 | 30358 ft | 466 kts | 287° |
| 2026-05-05 15:46 | 38.38347 | 38.40158 | 30764 ft | 465 kts | 287° |
| 2026-05-05 15:46 | 38.39442 | 38.36177 | 31036 ft | 464 kts | 287° |
| 2026-05-05 15:47 | 38.40532 | 38.32209 | 31308 ft | 463 kts | 286° |
| 2026-05-05 15:47 | 38.41256 | 38.29571 | 31506 ft | 462 kts | 287° |
| 2026-05-05 15:47 | 38.42688 | 38.24348 | 31852 ft | 461 kts | 287° |
| 2026-05-05 15:47 | 38.43758 | 38.20430 | 32098 ft | 461 kts | 287° |
| 2026-05-05 15:48 | 38.44790 | 38.16575 | 32364 ft | 460 kts | 285° |
| 2026-05-05 15:48 | 38.45700 | 38.12499 | 32595 ft | 458 kts | 281° |
| 2026-05-05 15:48 | 38.46332 | 38.08403 | 32840 ft | 456 kts | 276° |
| 2026-05-05 15:48 | 38.46693 | 38.04367 | 33103 ft | 454 kts | 272° |
| 2026-05-05 15:49 | 38.46915 | 38.00214 | 33333 ft | 453 kts | 272° |
| 2026-05-05 15:49 | 38.47108 | 37.96149 | 33603 ft | 452 kts | 272° |
| 2026-05-05 15:49 | 38.47297 | 37.92137 | 33863 ft | 452 kts | 272° |
| 2026-05-05 15:49 | 38.47497 | 37.87935 | 34186 ft | 451 kts | 272° |
| 2026-05-05 15:50 | 38.47707 | 37.83602 | 34455 ft | 451 kts | 272° |
| 2026-05-05 15:50 | 38.47924 | 37.79181 | 34783 ft | 449 kts | 272° |
| 2026-05-05 15:50 | 38.48139 | 37.74809 | 35044 ft | 449 kts | 272° |
| 2026-05-05 15:50 | 38.48351 | 37.70495 | 35318 ft | 448 kts | 272° |
| 2026-05-05 15:51 | 38.48552 | 37.66381 | 35584 ft | 448 kts | 272° |
| 2026-05-05 15:51 | 38.48746 | 37.62412 | 35811 ft | 448 kts | 272° |
| 2026-05-05 15:51 | 38.48936 | 37.58496 | 35948 ft | 449 kts | 272° |
| 2026-05-05 15:52 | 38.49315 | 37.50615 | 35966 ft | 449 kts | 272° |
| 2026-05-05 15:52 | 38.49710 | 37.42335 | 35960 ft | 447 kts | 272° |
| 2026-05-05 15:53 | 38.50127 | 37.33420 | 35942 ft | 447 kts | 272° |
| 2026-05-05 15:53 | 38.50520 | 37.24870 | 35927 ft | 448 kts | 272° |
| 2026-05-05 15:54 | 38.50922 | 37.15999 | 35927 ft | 448 kts | 272° |
| 2026-05-05 15:54 | 38.51294 | 37.07649 | 35933 ft | 450 kts | 272° |
| 2026-05-05 15:55 | 38.51660 | 36.99290 | 35942 ft | 449 kts | 272° |
| 2026-05-05 15:55 | 38.52018 | 36.90997 | 35943 ft | 449 kts | 272° |
| 2026-05-05 15:56 | 38.52353 | 36.83105 | 35942 ft | 448 kts | 272° |
| 2026-05-05 15:56 | 38.52684 | 36.75184 | 35931 ft | 448 kts | 272° |
| 2026-05-05 15:57 | 38.53012 | 36.67194 | 35934 ft | 447 kts | 272° |
| 2026-05-05 15:57 | 38.53346 | 36.58916 | 35936 ft | 448 kts | 273° |
| 2026-05-05 15:58 | 38.53670 | 36.50764 | 35941 ft | 446 kts | 273° |
| 2026-05-05 15:58 | 38.53985 | 36.42689 | 35940 ft | 447 kts | 273° |
| 2026-05-05 15:59 | 38.54297 | 36.34546 | 35933 ft | 446 kts | 272° |
| 2026-05-05 15:59 | 38.54613 | 36.26121 | 35931 ft | 446 kts | 272° |
| 2026-05-05 16:00 | 38.54917 | 36.17882 | 35934 ft | 446 kts | 273° |
| 2026-05-05 16:00 | 38.55210 | 36.09778 | 35948 ft | 446 kts | 273° |
| 2026-05-05 16:01 | 38.55492 | 36.01849 | 35959 ft | 447 kts | 273° |
| 2026-05-05 16:01 | 38.55771 | 35.93847 | 35970 ft | 446 kts | 273° |
| 2026-05-05 16:02 | 38.56053 | 35.85566 | 35969 ft | 446 kts | 273° |
| 2026-05-05 16:02 | 38.56332 | 35.77211 | 35967 ft | 446 kts | 273° |
| 2026-05-05 16:03 | 38.56605 | 35.68884 | 35966 ft | 444 kts | 273° |
| 2026-05-05 16:03 | 38.56867 | 35.60686 | 35970 ft | 444 kts | 273° |
| 2026-05-05 16:04 | 38.57122 | 35.52593 | 35972 ft | 443 kts | 274° |
| 2026-05-05 16:04 | 38.57370 | 35.44455 | 35976 ft | 444 kts | 274° |
| 2026-05-05 16:05 | 38.57614 | 35.36305 | 35984 ft | 443 kts | 274° |
| 2026-05-05 16:05 | 38.57851 | 35.28103 | 35995 ft | 443 kts | 273° |
| 2026-05-05 16:06 | 38.58084 | 35.19944 | 36004 ft | 442 kts | 273° |
| 2026-05-05 16:06 | 38.58310 | 35.11861 | 35999 ft | 442 kts | 273° |
| 2026-05-05 16:07 | 38.58534 | 35.03696 | 36008 ft | 443 kts | 274° |
| 2026-05-05 16:07 | 38.58747 | 34.95612 | 36016 ft | 442 kts | 274° |
| 2026-05-05 16:08 | 38.58955 | 34.87497 | 36016 ft | 442 kts | 274° |
| 2026-05-05 16:08 | 38.59157 | 34.79454 | 36016 ft | 440 kts | 274° |
| 2026-05-05 16:09 | 38.59352 | 34.71435 | 36014 ft | 441 kts | 274° |
| 2026-05-05 16:09 | 38.59542 | 34.63427 | 36012 ft | 440 kts | 274° |
| 2026-05-05 16:10 | 38.59726 | 34.55400 | 36006 ft | 439 kts | 274° |
| 2026-05-05 16:10 | 38.59901 | 34.47507 | 36008 ft | 438 kts | 274° |
| 2026-05-05 16:11 | 38.60069 | 34.39682 | 36011 ft | 438 kts | 275° |
| 2026-05-05 16:12 | 38.60395 | 34.23920 | 35997 ft | 438 kts | 274° |
| 2026-05-05 16:13 | 38.60773 | 34.04290 | 35987 ft | 437 kts | 275° |
| 2026-05-05 16:13 | 38.60916 | 33.96373 | 35980 ft | 435 kts | 275° |
| 2026-05-05 16:14 | 38.61182 | 33.80679 | 35988 ft | 434 kts | 275° |
| 2026-05-05 16:15 | 38.61424 | 33.65016 | 35995 ft | 434 kts | 275° |
| 2026-05-05 16:16 | 38.61642 | 33.49588 | 36019 ft | 432 kts | 275° |
| 2026-05-05 16:17 | 38.61796 | 33.38116 | 36008 ft | 431 kts | 275° |
| 2026-05-05 16:18 | 38.61937 | 33.26604 | 36010 ft | 431 kts | 274° |
| 2026-05-05 16:19 | 38.62070 | 33.14754 | 36012 ft | 432 kts | 274° |
| 2026-05-05 16:19 | 38.62192 | 33.02770 | 36004 ft | 430 kts | 274° |
| 2026-05-05 16:20 | 38.62337 | 32.86549 | 36008 ft | 430 kts | 275° |
| 2026-05-05 16:22 | 38.62487 | 32.66148 | 36017 ft | 428 kts | 274° |
| 2026-05-05 16:23 | 38.62585 | 32.50115 | 36015 ft | 429 kts | 274° |
| 2026-05-05 16:23 | 38.62640 | 32.37838 | 36023 ft | 430 kts | 274° |
| 2026-05-05 16:24 | 38.62671 | 32.29776 | 36026 ft | 430 kts | 274° |
| 2026-05-05 16:25 | 38.62708 | 32.17478 | 36030 ft | 434 kts | 274° |
| 2026-05-05 16:25 | 38.62732 | 32.05147 | 36033 ft | 432 kts | 274° |
| 2026-05-05 16:26 | 38.62745 | 31.88790 | 36031 ft | 434 kts | 274° |
| 2026-05-05 16:27 | 38.62740 | 31.80512 | 36032 ft | 433 kts | 274° |
| 2026-05-05 16:27 | 38.62733 | 31.72236 | 36034 ft | 433 kts | 273° |
| 2026-05-05 16:28 | 38.62717 | 31.64003 | 36036 ft | 433 kts | 273° |
| 2026-05-05 16:28 | 38.62696 | 31.55453 | 36039 ft | 434 kts | 273° |
| 2026-05-05 16:29 | 38.62668 | 31.46964 | 36041 ft | 434 kts | 273° |
| 2026-05-05 16:29 | 38.62635 | 31.38318 | 36043 ft | 436 kts | 273° |
| 2026-05-05 16:30 | 38.62595 | 31.29585 | 36038 ft | 435 kts | 272° |
| 2026-05-05 16:30 | 38.62548 | 31.21160 | 36041 ft | 434 kts | 272° |
| 2026-05-05 16:31 | 38.62495 | 31.12664 | 36037 ft | 435 kts | 272° |
| 2026-05-05 16:31 | 38.62435 | 31.04127 | 36030 ft | 435 kts | 272° |
| 2026-05-05 16:32 | 38.62370 | 30.95403 | 36026 ft | 436 kts | 272° |
| 2026-05-05 16:32 | 38.62297 | 30.86691 | 36033 ft | 436 kts | 272° |
| 2026-05-05 16:33 | 38.62215 | 30.77870 | 36037 ft | 436 kts | 272° |
| 2026-05-05 16:33 | 38.62127 | 30.68982 | 36034 ft | 435 kts | 272° |
| 2026-05-05 16:34 | 38.62037 | 30.60473 | 36034 ft | 434 kts | 272° |
| 2026-05-05 16:34 | 38.61948 | 30.52379 | 36028 ft | 435 kts | 272° |
| 2026-05-05 16:35 | 38.61847 | 30.44065 | 36027 ft | 435 kts | 272° |
| 2026-05-05 16:35 | 38.61738 | 30.35496 | 36025 ft | 434 kts | 272° |
| 2026-05-05 16:36 | 38.61623 | 30.26929 | 36031 ft | 435 kts | 272° |
| 2026-05-05 16:36 | 38.61500 | 30.18366 | 36033 ft | 434 kts | 272° |
| 2026-05-05 16:37 | 38.61374 | 30.09921 | 36031 ft | 434 kts | 272° |
| 2026-05-05 16:37 | 38.61242 | 30.01448 | 36031 ft | 435 kts | 272° |
| 2026-05-05 16:38 | 38.61104 | 29.92951 | 36034 ft | 434 kts | 272° |
| 2026-05-05 16:38 | 38.60957 | 29.84355 | 36031 ft | 434 kts | 272° |
| 2026-05-05 16:39 | 38.60810 | 29.76109 | 36036 ft | 434 kts | 272° |
| 2026-05-05 16:39 | 38.60656 | 29.67753 | 36044 ft | 433 kts | 272° |
| 2026-05-05 16:40 | 38.60500 | 29.59684 | 36052 ft | 433 kts | 272° |
| 2026-05-05 16:40 | 38.60334 | 29.51272 | 36062 ft | 434 kts | 272° |
| 2026-05-05 16:41 | 38.60158 | 29.42785 | 36068 ft | 433 kts | 272° |
| 2026-05-05 16:41 | 38.59976 | 29.34154 | 36060 ft | 432 kts | 271° |
| 2026-05-05 16:42 | 38.59787 | 29.25566 | 36059 ft | 433 kts | 271° |
| 2026-05-05 16:42 | 38.59592 | 29.17032 | 36057 ft | 433 kts | 272° |
| 2026-05-05 16:43 | 38.59391 | 29.08552 | 36053 ft | 433 kts | 272° |
| 2026-05-05 16:43 | 38.59179 | 28.99958 | 35726 ft | 426 kts | 272° |
| 2026-05-05 16:44 | 38.59074 | 28.95721 | 34899 ft | 432 kts | 272° |
| 2026-05-05 16:44 | 38.58968 | 28.91435 | 34130 ft | 435 kts | 272° |
| 2026-05-05 16:44 | 38.58859 | 28.87076 | 33327 ft | 436 kts | 272° |
| 2026-05-05 16:44 | 38.58749 | 28.82778 | 32476 ft | 437 kts | 272° |
| 2026-05-05 16:45 | 38.58635 | 28.78409 | 31592 ft | 439 kts | 272° |
| 2026-05-05 16:45 | 38.58518 | 28.74046 | 30655 ft | 441 kts | 271° |
| 2026-05-05 16:45 | 38.58320 | 28.69714 | 29642 ft | 445 kts | 269° |
| 2026-05-05 16:45 | 38.57845 | 28.65342 | 28494 ft | 453 kts | 262° |
| 2026-05-05 16:46 | 38.56981 | 28.61147 | 27425 ft | 458 kts | 256° |
| 2026-05-05 16:46 | 38.55793 | 28.57091 | 26463 ft | 461 kts | 251° |
| 2026-05-05 16:46 | 38.54400 | 28.53084 | 25731 ft | 459 kts | 249° |
| 2026-05-05 16:46 | 38.52863 | 28.48971 | 25015 ft | 465 kts | 248° |
| 2026-05-05 16:47 | 38.51324 | 28.44950 | 24295 ft | 470 kts | 248° |
| 2026-05-05 16:47 | 38.49794 | 28.40988 | 23576 ft | 463 kts | 248° |
| 2026-05-05 16:47 | 38.48294 | 28.37118 | 22849 ft | 455 kts | 248° |
| 2026-05-05 16:47 | 38.46806 | 28.33275 | 22123 ft | 450 kts | 247° |
| 2026-05-05 16:48 | 38.45358 | 28.29523 | 21417 ft | 453 kts | 248° |
| 2026-05-05 16:48 | 38.43918 | 28.25781 | 20714 ft | 452 kts | 247° |
| 2026-05-05 16:48 | 38.42493 | 28.22080 | 20017 ft | 444 kts | 247° |
| 2026-05-05 16:48 | 38.41092 | 28.18446 | 19334 ft | 437 kts | 248° |
| 2026-05-05 16:49 | 38.39735 | 28.14930 | 18684 ft | 430 kts | 248° |
| 2026-05-05 16:49 | 38.38375 | 28.11401 | 18024 ft | 424 kts | 248° |
| 2026-05-05 16:49 | 38.37069 | 28.08011 | 17384 ft | 418 kts | 248° |
| 2026-05-05 16:49 | 38.35757 | 28.04606 | 16761 ft | 412 kts | 248° |
| 2026-05-05 16:50 | 38.34464 | 28.01253 | 16141 ft | 406 kts | 248° |
| 2026-05-05 16:50 | 38.33213 | 27.98016 | 15514 ft | 397 kts | 248° |
| 2026-05-05 16:50 | 38.31989 | 27.94859 | 14990 ft | 381 kts | 248° |
| 2026-05-05 16:50 | 38.30811 | 27.91824 | 14504 ft | 370 kts | 248° |
| 2026-05-05 16:51 | 38.29675 | 27.88896 | 14006 ft | 360 kts | 248° |
| 2026-05-05 16:51 | 38.28912 | 27.86924 | 13669 ft | 356 kts | 248° |
| 2026-05-05 16:51 | 38.27438 | 27.83122 | 13054 ft | 345 kts | 248° |
| 2026-05-05 16:51 | 38.26358 | 27.80340 | 12600 ft | 337 kts | 248° |
| 2026-05-05 16:52 | 38.25306 | 27.77633 | 12148 ft | 330 kts | 248° |
| 2026-05-05 16:52 | 38.24261 | 27.74947 | 11675 ft | 324 kts | 248° |
| 2026-05-05 16:52 | 38.23253 | 27.72362 | 11222 ft | 316 kts | 248° |
| 2026-05-05 16:52 | 38.22278 | 27.69860 | 10809 ft | 310 kts | 248° |
| 2026-05-05 16:53 | 38.21299 | 27.67348 | 10371 ft | 308 kts | 248° |
| 2026-05-05 16:53 | 38.20327 | 27.64858 | 9902 ft | 302 kts | 248° |
| 2026-05-05 16:53 | 38.19392 | 27.62468 | 9472 ft | 295 kts | 248° |
| 2026-05-05 16:53 | 38.18482 | 27.60145 | 9069 ft | 288 kts | 248° |
| 2026-05-05 16:54 | 38.17584 | 27.57852 | 8662 ft | 282 kts | 248° |
| 2026-05-05 16:54 | 38.16712 | 27.55627 | 8259 ft | 276 kts | 248° |
| 2026-05-05 16:54 | 38.15845 | 27.53416 | 7876 ft | 271 kts | 248° |
| 2026-05-05 16:54 | 38.14980 | 27.51208 | 7499 ft | 268 kts | 248° |
| 2026-05-05 16:55 | 38.14133 | 27.49050 | 7147 ft | 267 kts | 248° |
| 2026-05-05 16:55 | 38.13291 | 27.46906 | 6834 ft | 265 kts | 248° |
| 2026-05-05 16:55 | 38.12472 | 27.44821 | 6517 ft | 263 kts | 248° |
| 2026-05-05 16:55 | 38.11632 | 27.42686 | 6195 ft | 261 kts | 248° |
| 2026-05-05 16:56 | 38.10798 | 27.40570 | 5896 ft | 253 kts | 248° |
| 2026-05-05 16:56 | 38.10003 | 27.38556 | 5667 ft | 249 kts | 248° |
| 2026-05-05 16:56 | 38.09218 | 27.36566 | 5432 ft | 243 kts | 248° |
| 2026-05-05 16:56 | 38.08436 | 27.34587 | 5161 ft | 239 kts | 247° |
| 2026-05-05 16:57 | 38.07739 | 27.32639 | 4886 ft | 232 kts | 255° |
| 2026-05-05 16:57 | 38.07295 | 27.30585 | 4628 ft | 227 kts | 261° |
| 2026-05-05 16:57 | 38.06957 | 27.28563 | 4383 ft | 223 kts | 262° |
| 2026-05-05 16:57 | 38.06623 | 27.26549 | 4152 ft | 218 kts | 265° |
| 2026-05-05 16:58 | 38.06599 | 27.24546 | 3941 ft | 205 kts | 290° |
| 2026-05-05 16:58 | 38.07333 | 27.23030 | 3903 ft | 178 kts | 323° |
| 2026-05-05 16:58 | 38.08494 | 27.22169 | 3914 ft | 172 kts | 339° |
| 2026-05-05 16:58 | 38.09791 | 27.21572 | 3919 ft | 173 kts | 345° |
| 2026-05-05 16:59 | 38.11085 | 27.21130 | 3777 ft | 174 kts | 347° |
| 2026-05-05 16:59 | 38.12376 | 27.20735 | 3478 ft | 172 kts | 348° |
| 2026-05-05 16:59 | 38.13674 | 27.20343 | 3224 ft | 170 kts | 348° |
| 2026-05-05 16:59 | 38.14961 | 27.19959 | 2960 ft | 171 kts | 348° |
| 2026-05-05 17:00 | 38.16247 | 27.19575 | 2710 ft | 163 kts | 348° |
| 2026-05-05 17:00 | 38.17478 | 27.19207 | 2467 ft | 156 kts | 348° |
| 2026-05-05 17:00 | 38.18545 | 27.18889 | 2248 ft | 152 kts | 347° |
| 2026-05-05 17:00 | 38.19608 | 27.18573 | 2029 ft | 148 kts | 347° |
| 2026-05-05 17:01 | 38.20677 | 27.18255 | 1818 ft | 149 kts | 347° |
| 2026-05-05 17:01 | 38.21770 | 27.17925 | 1607 ft | 147 kts | 347° |
| 2026-05-05 17:01 | 38.22858 | 27.17602 | 1392 ft | 148 kts | 347° |
| 2026-05-05 17:01 | 38.23953 | 27.17275 | 1179 ft | 148 kts | 346° |
| 2026-05-05 17:02 | 38.24957 | 27.16974 | 983 ft | 148 kts | 346° |
| 2026-05-05 17:02 | 38.25969 | 27.16673 | 780 ft | 148 kts | 346° |
| 2026-05-05 17:02 | 38.26970 | 27.16380 | 579 ft | 147 kts | 345° |
| 2026-05-05 17:02 | 38.27963 | 27.16079 | 413 ft | 144 kts | 345° |
| 2026-05-05 17:03 | 38.28786 | 27.15830 | 409 ft | 80 kts | 348° |
| 2026-05-05 17:03 | 38.29187 | 27.15711 | 412 ft | 40 kts | 346° |
| 2026-05-05 17:03 | 38.29390 | 27.15653 | 414 ft | 16 kts | 346° |
| 2026-05-05 17:03 | 38.29411 | 27.15540 | 412 ft | 14 kts | 257° |
| 2026-05-05 17:04 | 38.29386 | 27.15399 | 410 ft | 14 kts | 258° |
| 2026-05-05 17:04 | 38.29363 | 27.15274 | 409 ft | 12 kts | 256° |
| 2026-05-05 17:04 | 38.29339 | 27.15157 | 407 ft | 10 kts | 240° |
| 2026-05-05 17:04 | 38.29277 | 27.15150 | 408 ft | 7 kts | 168° |
| 2026-05-05 17:05 | 38.29230 | 27.15163 | 409 ft | 4 kts | 167° |
| 2026-05-05 17:05 | 38.29212 | 27.15159 | 409 ft | 1 kts | 244° |
| 2026-05-05 17:05 | 38.29210 | 27.15146 | 410 ft | 0 kts | 256° |
| 2026-05-05 17:05 | 38.29208 | 27.15135 | 410 ft | 2 kts | 257° |
| 2026-05-05 17:06 | 38.29205 | 27.15118 | 410 ft | 1 kts | 257° |
| 2026-05-05 17:06 | 38.29201 | 27.15101 | 410 ft | 1 kts | 256° |
| 2026-05-05 17:06 | 38.29198 | 27.15085 | 410 ft | 0 kts | 256° |
| 2026-05-05 17:06 | 38.29198 | 27.15084 | 410 ft | 0 kts | 256° |